createdAt,value
2023-05-07T00:00:54.932Z,23.93
2023-05-07T00:03:37.124Z,17.57
2023-05-07T00:06:15.187Z,20.50
2023-05-07T00:08:54.956Z,27.17
2023-05-07T00:11:32.917Z,25.27
2023-05-07T00:14:07.482Z,20.37
2023-05-07T00:16:46.639Z,22.87
2023-05-07T00:19:22.314Z,18.87
2023-05-07T00:21:58.392Z,21.93
2023-05-07T00:24:37.674Z,19.47
2023-05-07T00:27:16.733Z,19.97
2023-05-07T00:29:51.518Z,17.73
2023-05-07T00:32:27.940Z,17.87
2023-05-07T00:35:10.495Z,20.00
2023-05-07T00:37:49.645Z,17.87
2023-05-07T00:40:33.966Z,44.10
2023-05-07T00:43:12.037Z,19.53
2023-05-07T00:45:46.546Z,18.67
2023-05-07T00:48:22.327Z,17.00
2023-05-07T00:51:08.340Z,19.87
2023-05-07T00:53:43.644Z,18.40
2023-05-07T00:56:24.891Z,18.73
2023-05-07T00:59:02.351Z,17.33
2023-05-07T01:01:39.081Z,16.00
2023-05-07T01:04:18.900Z,18.27
2023-05-07T01:06:55.846Z,18.92
2023-05-07T01:09:32.524Z,15.77
2023-05-07T01:12:11.146Z,12.13
2023-05-07T01:14:45.601Z,13.27
2023-05-07T01:17:20.032Z,14.07
2023-05-07T01:19:56.299Z,17.73
2023-05-07T01:22:39.443Z,16.17
2023-05-07T01:25:17.145Z,18.85
2023-05-07T01:28:00.133Z,17.52
2023-05-07T01:30:38.824Z,14.23
2023-05-07T01:33:19.692Z,19.17
2023-05-07T01:36:00.955Z,17.30
2023-05-07T01:38:43.611Z,13.32
2023-05-07T01:41:21.046Z,16.08
2023-05-07T01:43:55.523Z,15.80
2023-05-07T01:46:33.061Z,25.88
2023-05-07T01:49:10.000Z,15.80
2023-05-07T01:51:46.691Z,17.80
2023-05-07T01:54:24.714Z,20.30
2023-05-07T01:57:01.282Z,16.92
2023-05-07T01:59:46.575Z,16.88
2023-05-07T02:02:24.566Z,15.80
2023-05-07T02:05:03.099Z,19.10
2023-05-07T02:07:39.727Z,16.63
2023-05-07T02:10:22.102Z,18.23
2023-05-07T02:13:11.201Z,19.13
2023-05-07T02:18:47.375Z,21.02
2023-05-07T02:21:21.821Z,20.05
2023-05-07T02:23:57.648Z,22.70
2023-05-07T02:26:51.080Z,22.90
2023-05-07T02:29:32.296Z,21.70
2023-05-07T02:32:07.591Z,25.65
2023-05-07T02:34:42.522Z,21.23
2023-05-07T02:37:19.958Z,24.10
2023-05-07T02:39:54.654Z,23.88
2023-05-07T02:42:31.335Z,25.73
2023-05-07T02:45:12.549Z,24.10
2023-05-07T02:47:48.636Z,23.10
2023-05-07T02:50:26.009Z,28.70
2023-05-07T02:53:04.962Z,28.80
2023-05-07T02:55:43.397Z,30.90
2023-05-07T02:58:33.580Z,28.03
2023-05-07T03:01:10.430Z,28.73
2023-05-07T03:04:07.549Z,30.87
2023-05-07T03:06:45.097Z,33.30
2023-05-07T03:09:22.293Z,32.53
2023-05-07T03:12:10.817Z,39.13
2023-05-07T03:14:52.110Z,33.97
2023-05-07T03:17:26.683Z,33.90
2023-05-07T03:20:01.190Z,35.23
2023-05-07T03:22:37.466Z,31.33
2023-05-07T03:25:21.528Z,36.10
2023-05-07T03:27:59.836Z,39.40
2023-05-07T03:30:49.507Z,35.77
2023-05-07T03:33:30.676Z,40.23
2023-05-07T03:36:05.904Z,34.97
2023-05-07T03:38:39.773Z,32.57
2023-05-07T03:41:22.679Z,36.93
2023-05-07T03:44:01.525Z,36.10
2023-05-07T03:47:06.815Z,36.33
2023-05-07T03:49:42.159Z,30.50
2023-05-07T03:52:16.568Z,30.27
2023-05-07T03:54:53.608Z,30.17
2023-05-07T03:57:28.269Z,37.67
2023-05-07T04:00:09.952Z,28.97
2023-05-07T04:02:57.828Z,29.77
2023-05-07T04:05:34.150Z,30.93
2023-05-07T04:08:16.392Z,32.83
2023-05-07T04:11:01.426Z,30.87
2023-05-07T04:13:39.050Z,34.43
2023-05-07T04:16:19.625Z,19.80
2023-05-07T04:18:55.822Z,25.47
2023-05-07T04:21:32.329Z,22.87
2023-05-07T04:24:09.800Z,24.70
2023-05-07T04:26:45.533Z,25.17
2023-05-07T04:29:22.062Z,27.30
2023-05-07T04:31:58.013Z,24.47
2023-05-07T04:34:35.911Z,27.30
2023-05-07T04:37:18.235Z,26.03
2023-05-07T04:39:53.062Z,24.87
2023-05-07T04:42:31.152Z,25.13
2023-05-07T04:45:14.308Z,26.13
2023-05-07T04:47:56.230Z,29.17
2023-05-07T04:50:33.066Z,29.60
2023-05-07T04:53:15.187Z,27.60
2023-05-07T04:55:50.862Z,28.57
2023-05-07T04:58:27.993Z,30.43
2023-05-07T05:01:02.140Z,33.57
2023-05-07T05:03:38.989Z,31.80
2023-05-07T05:06:18.908Z,35.70
2023-05-07T05:08:54.183Z,28.93
2023-05-07T05:11:33.447Z,37.17
2023-05-07T05:14:14.900Z,29.77
2023-05-07T05:16:51.162Z,33.43
2023-05-07T05:19:27.121Z,30.20
2023-05-07T05:22:08.692Z,29.57
2023-05-07T05:24:43.431Z,27.17
2023-05-07T05:27:18.611Z,31.33
2023-05-07T05:29:52.576Z,28.67
2023-05-07T05:32:28.830Z,31.93
2023-05-07T05:35:04.478Z,30.27
2023-05-07T05:37:43.368Z,27.33
2023-05-07T05:40:18.772Z,25.67
2023-05-07T05:42:53.614Z,27.90
2023-05-07T05:45:29.418Z,30.70
2023-05-07T05:48:06.953Z,30.43
2023-05-07T05:50:48.765Z,34.97
2023-05-07T05:53:32.010Z,29.93
2023-05-07T05:56:07.792Z,31.13
2023-05-07T05:58:42.548Z,29.43
2023-05-07T06:01:21.976Z,25.87
2023-05-07T06:03:59.583Z,27.30
2023-05-07T06:06:44.321Z,29.30
2023-05-07T06:09:22.895Z,26.00
2023-05-07T06:12:04.124Z,25.53
2023-05-07T06:14:41.110Z,25.80
2023-05-07T06:17:21.783Z,25.37
2023-05-07T06:20:01.432Z,27.50
2023-05-07T06:22:38.289Z,27.20
2023-05-07T06:25:16.754Z,24.60
2023-05-07T06:27:55.634Z,21.43
2023-05-07T06:30:39.329Z,18.87
2023-05-07T06:33:17.619Z,22.60
2023-05-07T06:35:55.775Z,22.83
2023-05-07T06:38:36.976Z,18.97
2023-05-07T06:41:17.376Z,19.50
2023-05-07T06:43:54.090Z,18.87
2023-05-07T06:46:39.687Z,19.07
2023-05-07T06:49:17.258Z,15.90
2023-05-07T06:51:57.294Z,20.77
2023-05-07T06:54:31.561Z,16.07
2023-05-07T06:57:08.073Z,20.80
2023-05-07T06:59:45.143Z,18.23
2023-05-07T07:02:18.849Z,17.57
2023-05-07T07:05:05.931Z,16.33
2023-05-07T07:07:43.422Z,14.83
2023-05-07T07:10:18.896Z,20.27
2023-05-07T07:12:56.811Z,22.63
2023-05-07T07:15:32.126Z,29.97
2023-05-07T07:18:06.680Z,17.50
2023-05-07T07:20:45.537Z,17.00
2023-05-07T07:23:22.621Z,17.53
2023-05-07T07:25:58.724Z,19.07
2023-05-07T07:28:45.165Z,17.33
2023-05-07T07:31:25.432Z,17.10
2023-05-07T07:36:52.377Z,14.53
2023-05-07T07:39:30.906Z,15.17
2023-05-07T07:42:07.805Z,18.27
2023-05-07T07:44:45.806Z,18.97
2023-05-07T07:47:27.486Z,13.50
2023-05-07T07:50:02.089Z,16.23
2023-05-07T07:52:40.014Z,14.53
2023-05-07T07:55:20.155Z,16.93
2023-05-07T07:57:54.055Z,16.47
2023-05-07T08:00:32.580Z,12.77
2023-05-07T08:03:12.256Z,14.27
2023-05-07T08:05:55.057Z,16.87
2023-05-07T08:08:30.046Z,16.97
2023-05-07T08:11:05.987Z,15.37
2023-05-07T08:13:48.511Z,14.30
2023-05-07T08:16:31.142Z,16.10
2023-05-07T08:19:06.665Z,15.23
2023-05-07T08:21:45.313Z,14.10
2023-05-07T08:24:21.879Z,16.53
2023-05-07T08:26:57.451Z,16.40
2023-05-07T08:29:31.946Z,16.47
2023-05-07T08:32:49.462Z,18.87
2023-05-07T08:35:24.143Z,23.13
2023-05-07T08:38:00.595Z,14.10
2023-05-07T08:43:37.397Z,22.80
2023-05-07T08:46:17.838Z,21.53
2023-05-07T08:49:01.055Z,18.67
2023-05-07T08:51:37.366Z,18.70
2023-05-07T08:54:13.581Z,19.70
2023-05-07T08:56:48.711Z,14.10
2023-05-07T08:59:26.659Z,20.87
2023-05-07T09:02:04.596Z,19.07
2023-05-07T09:04:41.718Z,19.37
2023-05-07T09:07:19.869Z,23.60
2023-05-07T09:09:55.149Z,26.70
2023-05-07T09:12:29.227Z,21.77
2023-05-07T09:15:05.476Z,24.93
2023-05-07T09:17:40.444Z,19.57
2023-05-07T09:20:30.701Z,23.20
2023-05-07T09:23:05.783Z,25.30
2023-05-07T09:25:43.166Z,22.47
2023-05-07T09:28:25.228Z,21.57
2023-05-07T09:31:02.613Z,24.77
2023-05-07T09:33:37.421Z,24.93
2023-05-07T09:36:16.645Z,23.67
2023-05-07T09:38:55.854Z,20.30
2023-05-07T09:41:36.063Z,22.57
2023-05-07T09:44:28.410Z,26.10
2023-05-07T09:47:04.314Z,21.67
2023-05-07T09:49:46.950Z,25.10
2023-05-07T09:52:29.290Z,21.23
2023-05-07T09:55:05.404Z,20.70
2023-05-07T09:57:44.229Z,25.83
2023-05-07T10:00:19.169Z,27.87
2023-05-07T10:02:58.224Z,22.37
2023-05-07T10:05:41.030Z,24.03
2023-05-07T10:08:20.263Z,27.47
2023-05-07T10:10:55.846Z,21.43
2023-05-07T10:13:32.484Z,21.33
2023-05-07T10:16:08.220Z,20.43
2023-05-07T10:18:51.007Z,16.23
2023-05-07T10:21:38.180Z,20.90
2023-05-07T10:24:20.011Z,18.90
2023-05-07T10:27:14.638Z,16.37
2023-05-07T10:30:06.107Z,20.47
2023-05-07T10:32:49.299Z,18.90
2023-05-07T10:35:39.335Z,16.23
2023-05-07T10:38:15.912Z,18.57
2023-05-07T10:40:54.192Z,21.37
2023-05-07T10:43:42.635Z,21.13
2023-05-07T10:49:24.741Z,28.73
2023-05-07T11:04:38.396Z,20.37
2023-05-07T11:07:51.178Z,22.90
2023-05-07T11:10:25.394Z,24.10
2023-05-07T11:13:08.720Z,25.67
2023-05-07T11:16:03.466Z,19.17
2023-05-07T11:18:56.004Z,20.50
2023-05-07T11:21:42.955Z,22.83
2023-05-07T11:24:43.270Z,25.93
2023-05-07T11:27:31.255Z,18.53
2023-05-07T11:30:07.097Z,17.40
2023-05-07T11:32:43.004Z,18.00
2023-05-07T11:35:35.673Z,12.23
2023-05-07T11:38:17.568Z,14.00
2023-05-07T11:41:17.425Z,13.07
2023-05-07T11:47:10.369Z,11.70
2023-05-07T11:49:44.887Z,11.87
2023-05-07T11:52:22.304Z,11.10
2023-05-07T11:55:02.723Z,9.37
2023-05-07T11:57:42.670Z,11.00
2023-05-07T12:00:25.241Z,9.10
2023-05-07T12:03:05.850Z,14.30
2023-05-07T12:05:44.034Z,9.37
2023-05-07T12:08:35.606Z,11.60
2023-05-07T12:11:23.713Z,8.70
2023-05-07T12:14:10.834Z,10.90
2023-05-07T12:16:49.371Z,9.97
2023-05-07T12:19:23.392Z,11.10
2023-05-07T12:22:00.697Z,9.77
2023-05-07T12:24:53.157Z,7.77
2023-05-07T12:27:35.189Z,9.30
2023-05-07T12:30:25.133Z,10.40
2023-05-07T12:33:02.872Z,10.87
2023-05-07T12:35:43.737Z,11.80
2023-05-07T12:38:24.316Z,9.43
2023-05-07T12:41:04.359Z,17.93
2023-05-07T12:43:46.238Z,10.70
2023-05-07T12:46:26.626Z,8.53
2023-05-07T12:49:00.879Z,7.90
2023-05-07T12:51:42.440Z,8.23
2023-05-07T12:54:16.920Z,10.53
2023-05-07T12:56:55.023Z,7.63
2023-05-07T12:59:42.717Z,7.50
2023-05-07T13:02:17.433Z,11.83
2023-05-07T13:04:56.467Z,9.00
2023-05-07T13:07:38.520Z,7.60
2023-05-07T13:10:19.650Z,10.77
2023-05-07T13:13:02.901Z,10.33
2023-05-07T13:15:46.809Z,8.73
2023-05-07T13:18:25.331Z,9.00
2023-05-07T13:21:07.124Z,8.10
2023-05-07T13:23:42.243Z,9.20
2023-05-07T13:26:26.605Z,12.50
2023-05-07T13:29:04.434Z,8.90
2023-05-07T13:34:54.904Z,9.83
2023-05-07T13:37:32.922Z,11.60
2023-05-07T13:40:19.038Z,12.73
2023-05-07T13:42:58.437Z,9.90
2023-05-07T13:45:37.959Z,13.13
2023-05-07T13:48:27.833Z,10.20
2023-05-07T13:51:04.457Z,12.07
2023-05-07T13:53:43.226Z,11.77
2023-05-07T13:56:24.069Z,12.20
2023-05-07T13:59:01.758Z,11.53
2023-05-07T14:01:39.732Z,10.37
2023-05-07T14:04:17.159Z,14.97
2023-05-07T14:06:53.129Z,14.07
2023-05-07T14:09:38.448Z,13.93
2023-05-07T14:12:12.807Z,14.43
2023-05-07T14:14:57.494Z,13.07
2023-05-07T14:17:39.250Z,13.73
2023-05-07T14:20:22.257Z,15.37
2023-05-07T14:23:03.640Z,12.80
2023-05-07T14:25:41.378Z,13.67
2023-05-07T14:28:20.987Z,13.53
2023-05-07T14:31:01.275Z,12.43
2023-05-07T14:33:35.164Z,14.10
2023-05-07T14:36:18.082Z,12.40
2023-05-07T14:38:55.400Z,13.73
2023-05-07T14:41:33.193Z,13.53
2023-05-07T14:44:11.123Z,12.93
2023-05-07T14:46:54.921Z,16.23
2023-05-07T14:49:36.621Z,16.57
2023-05-07T14:52:17.407Z,17.27
2023-05-07T14:54:54.390Z,16.97
2023-05-07T14:57:32.898Z,15.13
2023-05-07T15:00:15.213Z,15.07
2023-05-07T15:05:47.555Z,15.93
2023-05-07T15:08:23.254Z,16.57
2023-05-07T15:11:02.448Z,16.53
2023-05-07T15:13:42.132Z,13.63
2023-05-07T15:16:22.028Z,15.37
2023-05-07T15:18:59.279Z,17.03
2023-05-07T15:21:36.972Z,14.90
2023-05-07T15:24:16.187Z,14.80
2023-05-07T15:26:51.758Z,17.43
2023-05-07T15:29:27.289Z,17.50
2023-05-07T15:32:08.950Z,16.07
2023-05-07T15:34:55.618Z,16.30
2023-05-07T15:37:49.444Z,17.47
2023-05-07T15:40:24.958Z,18.50
2023-05-07T15:43:02.558Z,15.40
2023-05-07T15:45:42.573Z,16.13
2023-05-07T15:48:20.668Z,19.00
2023-05-07T15:50:56.009Z,17.27
2023-05-07T15:53:32.494Z,15.77
2023-05-07T15:56:13.940Z,16.33
2023-05-07T15:58:49.819Z,15.87
2023-05-07T16:01:26.170Z,18.60
2023-05-07T16:04:03.263Z,14.90
2023-05-07T16:06:37.750Z,15.33
2023-05-07T16:09:13.875Z,13.37
2023-05-07T16:11:55.387Z,16.77
2023-05-07T16:14:30.840Z,14.43
2023-05-07T16:17:07.389Z,13.67
2023-05-07T16:19:40.471Z,14.10
2023-05-07T16:22:17.455Z,11.73
2023-05-07T16:24:59.759Z,12.70
2023-05-07T16:27:40.494Z,12.90
2023-05-07T16:30:32.858Z,9.50
2023-05-07T16:33:10.566Z,9.37
2023-05-07T16:35:49.679Z,10.03
2023-05-07T16:38:28.726Z,10.47
2023-05-07T16:41:05.754Z,11.83
2023-05-07T16:43:44.252Z,10.47
2023-05-07T16:46:20.530Z,10.13
2023-05-07T16:48:57.781Z,9.73
2023-05-07T16:51:31.800Z,12.10
2023-05-07T16:54:06.557Z,10.47
2023-05-07T16:56:44.026Z,7.33
2023-05-07T16:59:24.611Z,11.13
2023-05-07T17:01:59.522Z,10.67
2023-05-07T17:04:36.111Z,9.20
2023-05-07T17:07:12.897Z,11.17
2023-05-07T17:09:51.579Z,9.47
2023-05-07T17:12:31.387Z,10.23
2023-05-07T17:15:14.712Z,8.67
2023-05-07T17:17:54.415Z,9.20
2023-05-07T17:20:30.479Z,10.67
2023-05-07T17:23:06.744Z,8.73
2023-05-07T17:25:43.529Z,13.47
2023-05-07T17:28:19.284Z,12.47
2023-05-07T17:30:58.625Z,14.27
2023-05-07T17:33:33.364Z,10.57
2023-05-07T17:36:10.127Z,8.90
2023-05-07T17:38:52.504Z,13.73
2023-05-07T17:41:29.516Z,10.63
2023-05-07T17:44:03.488Z,13.23
2023-05-07T17:46:45.208Z,11.37
2023-05-07T17:49:25.025Z,12.13
2023-05-07T17:52:01.428Z,12.70
2023-05-07T17:54:41.262Z,11.90
2023-05-07T17:57:19.117Z,13.83
2023-05-07T17:59:53.666Z,14.20
2023-05-07T18:02:34.507Z,12.90
2023-05-07T18:05:16.546Z,16.13
2023-05-07T18:07:52.098Z,14.43
2023-05-07T18:10:31.175Z,11.97
2023-05-07T18:13:07.777Z,11.43
2023-05-07T18:15:41.855Z,10.70
2023-05-07T18:18:23.014Z,9.87
2023-05-07T18:20:59.608Z,12.30
2023-05-07T18:23:38.482Z,11.03
2023-05-07T18:26:16.127Z,11.53
2023-05-07T18:28:49.953Z,10.43
2023-05-07T18:31:28.806Z,10.10
2023-05-07T18:34:07.769Z,8.73
2023-05-07T18:36:41.926Z,12.37
2023-05-07T18:39:21.456Z,10.60
2023-05-07T18:42:00.204Z,9.97
2023-05-07T18:44:43.999Z,7.17
2023-05-07T18:47:17.632Z,9.20
2023-05-07T18:49:53.931Z,8.90
2023-05-07T18:52:29.725Z,9.30
2023-05-07T18:55:07.976Z,10.43
2023-05-07T18:57:45.344Z,10.70
2023-05-07T19:00:23.188Z,8.23
2023-05-07T19:02:58.666Z,7.50
2023-05-07T19:05:37.876Z,11.37
2023-05-07T19:08:11.483Z,10.80
2023-05-07T19:10:47.809Z,7.93
2023-05-07T19:13:21.358Z,10.93
2023-05-07T19:15:58.156Z,11.43
2023-05-07T19:18:34.991Z,10.17
2023-05-07T19:21:11.260Z,8.73
2023-05-07T19:23:46.424Z,10.07
2023-05-07T19:26:22.308Z,11.90
2023-05-07T19:29:07.171Z,11.57
2023-05-07T19:31:50.338Z,11.20
2023-05-07T19:34:26.348Z,9.97
2023-05-07T19:37:04.483Z,10.73
2023-05-07T19:39:42.084Z,11.57
2023-05-07T19:45:09.131Z,9.27
2023-05-07T19:47:44.242Z,9.63
2023-05-07T19:50:21.189Z,14.47
2023-05-07T19:52:59.906Z,12.33
2023-05-07T19:55:34.287Z,14.33
2023-05-07T19:58:09.733Z,10.40
2023-05-07T20:00:43.782Z,11.57
2023-05-07T20:03:20.925Z,9.97
2023-05-07T20:05:56.690Z,10.40
2023-05-07T20:08:39.879Z,9.43
2023-05-07T20:11:14.658Z,12.10
2023-05-07T20:13:50.962Z,9.90
2023-05-07T20:16:25.066Z,10.07
2023-05-07T20:19:02.857Z,11.10
2023-05-07T20:21:42.100Z,14.00
2023-05-07T20:24:22.151Z,9.90
2023-05-07T20:26:56.606Z,12.70
2023-05-07T20:29:33.555Z,12.93
2023-05-07T20:32:08.925Z,13.07
2023-05-07T20:34:46.542Z,11.33
2023-05-07T20:37:24.685Z,11.90
2023-05-07T20:40:02.686Z,12.50
2023-05-07T20:42:38.610Z,8.87
2023-05-07T20:45:14.952Z,15.20
2023-05-07T20:47:50.744Z,15.00
2023-05-07T20:50:27.531Z,11.93
2023-05-07T20:53:05.056Z,12.13
2023-05-07T20:55:42.565Z,11.80
2023-05-07T20:58:19.691Z,12.83
2023-05-07T21:00:57.960Z,13.60
2023-05-07T21:03:31.272Z,11.27
2023-05-07T21:06:05.515Z,13.77
2023-05-07T21:08:41.676Z,14.00
2023-05-07T21:11:19.036Z,11.97
2023-05-07T21:13:53.714Z,12.53
2023-05-07T21:16:28.338Z,14.10
2023-05-07T21:19:04.104Z,14.03
2023-05-07T21:21:38.436Z,14.40
2023-05-07T21:24:13.620Z,12.33
2023-05-07T21:26:54.348Z,15.13
2023-05-07T21:29:29.034Z,14.63
2023-05-07T21:32:02.090Z,15.43
2023-05-07T21:34:39.361Z,16.83
2023-05-07T21:37:16.834Z,15.60
2023-05-07T21:39:54.574Z,16.20
2023-05-07T21:42:36.477Z,16.30
2023-05-07T21:45:15.769Z,19.80
2023-05-07T21:47:49.471Z,18.63
2023-05-07T21:50:29.253Z,17.47
2023-05-07T21:53:03.967Z,23.50
2023-05-07T21:55:40.685Z,18.57
2023-05-07T21:58:23.946Z,20.73
2023-05-07T22:01:00.717Z,24.53
2023-05-07T22:03:37.566Z,22.87
2023-05-07T22:06:15.198Z,22.87
2023-05-07T22:08:52.837Z,23.50
2023-05-07T22:11:27.564Z,25.73
2023-05-07T22:14:07.475Z,24.27
2023-05-07T22:16:43.976Z,22.10
2023-05-07T22:19:20.366Z,22.90
2023-05-07T22:21:55.409Z,28.50
2023-05-07T22:24:41.848Z,25.80
2023-05-07T22:30:11.915Z,25.50
2023-05-07T22:32:47.533Z,24.80
2023-05-07T22:35:23.069Z,22.03
2023-05-07T22:38:01.167Z,28.93
2023-05-07T22:40:39.412Z,23.87
2023-05-07T22:43:14.992Z,23.87
2023-05-07T22:45:51.951Z,21.33
2023-05-07T22:48:28.959Z,25.07
2023-05-07T22:51:05.563Z,20.27
2023-05-07T22:53:39.462Z,22.87
2023-05-07T22:56:19.213Z,20.03
2023-05-07T22:58:53.925Z,20.70
2023-05-07T23:01:32.389Z,16.67
2023-05-07T23:04:09.852Z,18.60
2023-05-07T23:06:45.397Z,18.07
2023-05-07T23:09:24.984Z,21.23
2023-05-07T23:11:58.373Z,16.70
2023-05-07T23:14:40.054Z,19.33
2023-05-07T23:17:19.782Z,16.63
2023-05-07T23:19:55.674Z,14.20
2023-05-07T23:22:30.184Z,17.53
2023-05-07T23:25:11.339Z,16.67
2023-05-07T23:27:49.029Z,14.83
2023-05-07T23:30:23.839Z,15.13
2023-05-07T23:33:00.507Z,16.47
2023-05-07T23:35:37.971Z,14.60
2023-05-07T23:38:15.015Z,17.00
2023-05-07T23:40:55.162Z,13.90
2023-05-07T23:43:29.861Z,14.73
2023-05-07T23:46:06.190Z,14.03
2023-05-07T23:48:49.701Z,14.00
2023-05-07T23:51:27.631Z,16.20
2023-05-07T23:54:02.497Z,16.63
2023-05-07T23:56:36.478Z,15.60
2023-05-07T23:59:12.995Z,15.97
